Terminal Aerodrome Forecast
Issued by NWS Cleveland, OH

Home | Current Version | Previous Version | Text Only | Print | Product List | Glossary On
Versions: 1 2 3 4 5 6 7 8 9 10 11 12 13 14 15 16 17 18 19 20 21 22 23 24 25
140
FTUS41 KCLE 240521
TAFERI
TAF
KERI 240521Z 2406/2506 04008KT 3SM -DZ BR OVC008
      TEMPO 2408/2412 2SM -RA BR OVC004
     FM241600 36006KT 5SM BR OVC008=

USA.gov is the U.S. government's official web portal to all federal, state and local government web resources and services.